createdAt,value
2019-05-05T00:00:14.469Z,3.3
2019-05-05T00:01:14.746Z,3.3
2019-05-05T00:02:14.531Z,3.3
2019-05-05T00:03:14.763Z,3.3
2019-05-05T00:04:14.957Z,3.3
2019-05-05T00:05:15.432Z,3.3
2019-05-05T00:06:14.798Z,3.3
2019-05-05T00:07:14.944Z,3.3
2019-05-05T00:08:15.308Z,3.3
2019-05-05T00:09:14.792Z,3.3
2019-05-05T00:10:15.170Z,3.3
2019-05-05T00:11:15.348Z,3.3
2019-05-05T00:12:14.822Z,3.3
2019-05-05T00:13:14.992Z,3.3
2019-05-05T00:14:15.245Z,3.2
2019-05-05T00:15:14.858Z,3.2
2019-05-05T00:16:15.207Z,3.2
2019-05-05T00:17:14.898Z,3.2
2019-05-05T00:18:14.946Z,3.2
2019-05-05T00:19:23.282Z,3.2
2019-05-05T00:20:14.977Z,3.2
2019-05-05T00:21:15.220Z,3.2
2019-05-05T00:22:15.241Z,3.2
2019-05-05T00:23:15.099Z,3.2
2019-05-05T00:24:15.244Z,3.2
2019-05-05T00:25:15.119Z,3.2
2019-05-05T00:26:15.151Z,3.2
2019-05-05T00:27:15.168Z,3.1
2019-05-05T00:28:15.202Z,3.1
2019-05-05T00:29:15.212Z,3.1
2019-05-05T00:30:15.222Z,3.1
2019-05-05T00:31:15.245Z,3.1
2019-05-05T00:32:15.502Z,3.1
2019-05-05T00:33:15.312Z,3.1
2019-05-05T00:34:15.564Z,3.1
2019-05-05T00:35:15.324Z,3.1
2019-05-05T00:36:15.350Z,3.1
2019-05-05T00:37:15.362Z,3.2
2019-05-05T00:38:15.393Z,3.2
2019-05-05T00:39:15.406Z,3.1
2019-05-05T00:40:15.408Z,3.1
2019-05-05T00:41:15.409Z,3.2
2019-05-05T00:42:15.620Z,3.2
2019-05-05T00:43:17.682Z,3.3
2019-05-05T00:44:15.516Z,3.2
2019-05-05T00:45:15.446Z,3.2
2019-05-05T00:46:16.523Z,3.2
2019-05-05T00:47:15.463Z,3.2
2019-05-05T00:48:17.782Z,3.2
2019-05-05T00:49:15.490Z,3.2
2019-05-05T00:50:15.503Z,3.2
2019-05-05T00:51:15.513Z,3.2
2019-05-05T00:52:15.501Z,3.2
2019-05-05T00:53:15.513Z,3.2
2019-05-05T00:54:15.536Z,3.2
2019-05-05T00:55:15.520Z,3.2
2019-05-05T00:56:15.540Z,3.2
2019-05-05T00:57:15.530Z,3.2
2019-05-05T00:58:15.536Z,3.1
2019-05-05T00:59:15.546Z,3.2
2019-05-05T01:00:15.536Z,3.2
2019-05-05T01:01:15.545Z,3.2
2019-05-05T01:02:15.570Z,3.2
2019-05-05T01:03:15.566Z,3.2
2019-05-05T01:04:15.566Z,3.2
2019-05-05T01:05:15.562Z,3.2
2019-05-05T01:06:15.556Z,3.2
2019-05-05T01:07:15.568Z,3.2
2019-05-05T01:08:15.562Z,3.2
2019-05-05T01:09:15.633Z,3.2
2019-05-05T01:10:15.622Z,3.2
2019-05-05T01:11:15.666Z,3.2
2019-05-05T01:12:15.723Z,3.1
2019-05-05T01:13:15.823Z,3.1
2019-05-05T01:14:15.812Z,3.2
2019-05-05T01:15:15.844Z,3.2
2019-05-05T01:16:15.907Z,3.2
2019-05-05T01:17:15.981Z,3.2
2019-05-05T01:18:16.008Z,3.2
2019-05-05T01:19:16.071Z,3.2
2019-05-05T01:20:16.084Z,3.2
2019-05-05T01:21:16.271Z,3.2
2019-05-05T01:22:16.172Z,3.2
2019-05-05T01:23:16.239Z,3.2
2019-05-05T01:24:16.251Z,3.2
2019-05-05T01:25:16.324Z,3.2
2019-05-05T01:26:16.309Z,3.2
2019-05-05T01:27:16.363Z,3.2
2019-05-05T01:28:16.366Z,3.2
2019-05-05T01:29:16.512Z,3.2
2019-05-05T01:30:16.450Z,3.3
2019-05-05T01:31:16.551Z,3.3
2019-05-05T01:32:16.559Z,3.3
2019-05-05T01:33:16.638Z,3.3
2019-05-05T01:34:16.673Z,3.3
2019-05-05T01:35:16.731Z,3.3
2019-05-05T01:36:16.771Z,3.3
2019-05-05T01:37:16.808Z,3.3
2019-05-05T01:38:16.898Z,3.3
2019-05-05T01:39:16.945Z,3.4
2019-05-05T01:40:16.990Z,3.4
2019-05-05T01:41:17.051Z,3.4
2019-05-05T01:42:17.095Z,3.4
2019-05-05T01:43:17.145Z,3.4
2019-05-05T01:44:17.191Z,3.4
2019-05-05T01:45:17.518Z,3.4
2019-05-05T01:46:17.251Z,3.4
2019-05-05T01:47:17.278Z,3.4
2019-05-05T01:48:17.321Z,3.4
2019-05-05T01:49:17.430Z,3.4
2019-05-05T01:50:21.102Z,3.4
2019-05-05T01:51:17.460Z,3.4
2019-05-05T01:52:17.483Z,3.4
2019-05-05T01:53:17.504Z,3.4
2019-05-05T01:54:17.514Z,3.4
2019-05-05T01:55:17.518Z,3.4
2019-05-05T01:56:17.537Z,3.4
2019-05-05T01:57:17.546Z,3.4
2019-05-05T01:58:17.608Z,3.4
2019-05-05T01:59:17.656Z,3.4
2019-05-05T02:00:17.718Z,3.3
2019-05-05T02:01:17.754Z,3.3
2019-05-05T02:02:17.779Z,3.3
2019-05-05T02:03:17.797Z,3.3
2019-05-05T02:04:17.851Z,3.3
2019-05-05T02:05:17.900Z,3.3
2019-05-05T02:06:17.913Z,3.3
2019-05-05T02:07:17.989Z,3.3
2019-05-05T02:08:18.010Z,3.3
2019-05-05T02:09:18.052Z,3.3
2019-05-05T02:10:18.080Z,3.3
2019-05-05T02:11:18.104Z,3.3
2019-05-05T02:12:18.148Z,3.4
2019-05-05T02:13:18.193Z,3.4
2019-05-05T02:14:18.218Z,3.4
2019-05-05T02:15:18.260Z,3.3
2019-05-05T02:16:18.285Z,3.4
2019-05-05T02:17:18.313Z,3.4
2019-05-05T02:18:18.363Z,3.4
2019-05-05T02:19:18.382Z,3.4
2019-05-05T02:20:28.505Z,3.4
2019-05-05T02:21:18.431Z,3.4
2019-05-05T02:22:18.489Z,3.4
2019-05-05T02:23:18.486Z,3.4
2019-05-05T02:24:18.520Z,3.4
2019-05-05T02:25:18.548Z,3.4
2019-05-05T02:26:18.649Z,3.5
2019-05-05T02:27:19.743Z,3.5
2019-05-05T02:28:18.614Z,3.5
2019-05-05T02:29:18.616Z,3.5
2019-05-05T02:30:18.635Z,3.5
2019-05-05T02:31:18.643Z,3.4
2019-05-05T02:32:18.672Z,3.4
2019-05-05T02:33:18.697Z,3.4
2019-05-05T02:34:18.715Z,3.4
2019-05-05T02:35:18.708Z,3.4
2019-05-05T02:36:18.706Z,3.4
2019-05-05T02:37:18.745Z,3.4
2019-05-05T02:38:18.759Z,3.4
2019-05-05T02:39:18.789Z,3.4
2019-05-05T02:40:18.786Z,3.4
2019-05-05T02:41:18.800Z,3.4
2019-05-05T02:42:18.801Z,3.4
2019-05-05T02:43:18.815Z,3.4
2019-05-05T02:44:18.919Z,3.4
2019-05-05T02:45:18.858Z,3.4
2019-05-05T02:46:18.853Z,3.4
2019-05-05T02:47:18.865Z,3.4
2019-05-05T02:48:18.865Z,3.4
2019-05-05T02:49:18.872Z,3.4
2019-05-05T02:50:18.890Z,3.4
2019-05-05T02:51:18.903Z,3.4
2019-05-05T02:52:18.879Z,3.4
2019-05-05T02:53:18.893Z,3.4
2019-05-05T02:54:18.900Z,3.4
2019-05-05T02:55:18.897Z,3.4
2019-05-05T02:56:18.900Z,3.3
2019-05-05T02:57:18.955Z,3.3
2019-05-05T02:58:19.030Z,3.3
2019-05-05T02:59:19.085Z,3.3
2019-05-05T03:00:19.137Z,3.3
2019-05-05T03:01:19.159Z,3.3
2019-05-05T03:02:19.189Z,3.3
2019-05-05T03:03:19.247Z,3.2
2019-05-05T03:04:19.259Z,3.2
2019-05-05T03:05:19.348Z,3.2
2019-05-05T03:06:19.384Z,3.2
2019-05-05T03:07:19.441Z,3.2
2019-05-05T03:08:19.437Z,3.2
2019-05-05T03:09:19.529Z,3.2
2019-05-05T03:10:19.521Z,3.1
2019-05-05T03:11:19.528Z,3.1
2019-05-05T03:12:19.621Z,3.1
2019-05-05T03:13:19.659Z,3.1
2019-05-05T03:14:19.702Z,3.1
2019-05-05T03:15:19.800Z,3.1
2019-05-05T03:16:19.793Z,3.1
2019-05-05T03:17:19.799Z,3.1
2019-05-05T03:18:19.869Z,3.1
2019-05-05T03:19:19.915Z,3.1
2019-05-05T03:20:19.957Z,3.1
2019-05-05T03:21:20.040Z,3.1
2019-05-05T03:22:20.064Z,3.1
2019-05-05T03:23:20.131Z,3
2019-05-05T03:24:20.150Z,3.1
2019-05-05T03:25:20.222Z,3.1
2019-05-05T03:26:20.255Z,3.1
2019-05-05T03:27:20.322Z,3.1
2019-05-05T03:28:20.309Z,3.1
2019-05-05T03:29:20.332Z,3.1
2019-05-05T03:30:20.364Z,3.1
2019-05-05T03:31:20.432Z,3.1
2019-05-05T03:32:20.418Z,3.1
2019-05-05T03:33:20.428Z,3.1
2019-05-05T03:34:20.481Z,3.1
2019-05-05T03:35:20.528Z,3.1
2019-05-05T03:36:20.577Z,3.1
2019-05-05T03:37:20.569Z,3
2019-05-05T03:38:20.590Z,3
2019-05-05T03:39:20.610Z,3
2019-05-05T03:40:20.722Z,3
2019-05-05T03:41:20.726Z,3
2019-05-05T03:42:20.707Z,3
2019-05-05T03:43:20.774Z,3
2019-05-05T03:44:20.815Z,3
2019-05-05T03:45:20.854Z,3
2019-05-05T03:46:20.889Z,3
2019-05-05T03:47:20.938Z,3
2019-05-05T03:48:20.955Z,3.1
2019-05-05T03:49:20.996Z,3.1
2019-05-05T03:50:21.041Z,3.1
2019-05-05T03:51:21.331Z,3.1
2019-05-05T03:52:21.116Z,3.1
2019-05-05T03:53:21.162Z,3.1
2019-05-05T03:54:21.168Z,3.1
2019-05-05T03:55:21.224Z,3.1
2019-05-05T03:56:21.243Z,3.1
2019-05-05T03:57:21.269Z,3.1
2019-05-05T03:58:21.271Z,3.1
2019-05-05T03:59:21.308Z,3.1
2019-05-05T04:00:23.401Z,3.1
2019-05-05T04:01:21.374Z,3.1
2019-05-05T04:02:23.269Z,3.1
2019-05-05T04:03:21.402Z,3.2
2019-05-05T04:04:21.409Z,3.2
2019-05-05T04:05:23.380Z,3.2
2019-05-05T04:06:23.380Z,3.2
2019-05-05T04:07:21.485Z,3.2
2019-05-05T04:08:23.313Z,3.2
2019-05-05T04:09:21.559Z,3.2
2019-05-05T04:10:21.548Z,3.2
2019-05-05T04:11:23.511Z,3.3
2019-05-05T04:12:21.571Z,3.3
2019-05-05T04:13:21.596Z,3.3
2019-05-05T04:14:21.627Z,3.3
2019-05-05T04:15:21.626Z,3.3
2019-05-05T04:16:23.547Z,3.4
2019-05-05T04:17:21.622Z,3.4
2019-05-05T04:18:23.654Z,3.4
2019-05-05T04:19:23.549Z,3.4
2019-05-05T04:20:21.667Z,3.5
2019-05-05T04:21:31.060Z,3.5
2019-05-05T04:22:23.567Z,3.5
2019-05-05T04:23:21.695Z,3.6
2019-05-05T04:24:23.658Z,3.6
2019-05-05T04:25:21.769Z,3.6
2019-05-05T04:26:23.448Z,3.6
2019-05-05T04:28:23.902Z,3.7
2019-05-05T04:29:21.750Z,3.7
2019-05-05T04:30:23.627Z,3.8
2019-05-05T04:31:23.969Z,3.8
2019-05-05T04:32:21.767Z,3.8
2019-05-05T04:33:23.611Z,3.9
2019-05-05T04:34:23.898Z,3.9
2019-05-05T04:35:21.780Z,3.9
2019-05-05T04:36:23.507Z,4
2019-05-05T04:37:23.686Z,4
2019-05-05T04:38:21.782Z,4
2019-05-05T04:39:23.632Z,4.1
2019-05-05T04:40:23.791Z,4.1
2019-05-05T04:41:21.945Z,4.2
2019-05-05T04:42:21.956Z,4.2
2019-05-05T04:43:21.984Z,4.2
2019-05-05T04:44:23.611Z,4.3
2019-05-05T04:45:23.533Z,4.3
2019-05-05T04:46:24.329Z,4.4
2019-05-05T04:47:23.739Z,4.4
2019-05-05T04:48:24.121Z,4.4
2019-05-05T04:49:23.466Z,4.5
2019-05-05T04:50:23.855Z,4.5
2019-05-05T04:51:24.295Z,4.5
2019-05-05T04:52:23.603Z,4.6
2019-05-05T04:53:24.082Z,4.6
2019-05-05T04:54:24.377Z,4.6
2019-05-05T04:55:24.389Z,4.7
2019-05-05T04:56:23.422Z,4.7
2019-05-05T04:57:25.096Z,4.7
2019-05-05T04:58:24.231Z,4.7
2019-05-05T04:59:23.488Z,4.7
2019-05-05T05:00:24.119Z,4.8
2019-05-05T05:01:24.048Z,4.8
2019-05-05T05:02:23.589Z,4.8
2019-05-05T05:03:23.923Z,4.8
2019-05-05T05:04:24.275Z,4.8
2019-05-05T05:05:24.399Z,4.8
2019-05-05T05:06:23.658Z,4.9
2019-05-05T05:07:24.119Z,4.9
2019-05-05T05:08:24.703Z,4.9
2019-05-05T05:09:23.709Z,4.9
2019-05-05T05:10:24.025Z,4.9
2019-05-05T05:11:24.614Z,5
2019-05-05T05:12:23.774Z,5
2019-05-05T05:13:24.429Z,5
2019-05-05T05:14:24.656Z,5
2019-05-05T05:15:23.992Z,5
2019-05-05T05:16:24.223Z,5.1
2019-05-05T05:17:24.846Z,5.1
2019-05-05T05:18:24.107Z,5.1
2019-05-05T05:19:24.158Z,5.1
2019-05-05T05:20:24.632Z,5.1
2019-05-05T05:21:23.731Z,5.1
2019-05-05T05:22:24.250Z,5.1
2019-05-05T05:23:24.614Z,5.1
2019-05-05T05:24:23.801Z,5.1
2019-05-05T05:25:24.034Z,5.1
2019-05-05T05:26:24.266Z,5.2
2019-05-05T05:27:24.422Z,5.2
2019-05-05T05:28:23.804Z,5.3
2019-05-05T05:29:23.915Z,5.3
2019-05-05T05:30:24.295Z,5.3
2019-05-05T05:31:24.440Z,5.3
2019-05-05T05:32:24.663Z,5.3
2019-05-05T05:33:24.007Z,5.3
2019-05-05T05:34:23.994Z,5.4
2019-05-05T05:35:24.457Z,5.4
2019-05-05T05:36:24.736Z,5.4
2019-05-05T05:37:24.138Z,5.5
2019-05-05T05:38:24.266Z,5.5
2019-05-05T05:39:24.476Z,5.5
2019-05-05T05:40:24.013Z,5.5
2019-05-05T05:41:24.072Z,5.6
2019-05-05T05:42:24.220Z,5.6
2019-05-05T05:43:25.339Z,5.6
2019-05-05T05:44:26.408Z,5.6
2019-05-05T05:45:24.186Z,5.7
2019-05-05T05:46:24.194Z,5.7
2019-05-05T05:47:24.465Z,5.7
2019-05-05T05:48:24.265Z,5.8
2019-05-05T05:49:24.332Z,5.8
2019-05-05T05:50:24.553Z,5.8
2019-05-05T05:51:24.316Z,5.9
2019-05-05T05:52:24.413Z,6
2019-05-05T05:53:24.563Z,6
2019-05-05T05:54:24.370Z,6.1
2019-05-05T05:55:24.386Z,6.1
2019-05-05T05:56:24.926Z,6.1
2019-05-05T05:57:24.417Z,6.1
2019-05-05T05:58:24.640Z,6.2
2019-05-05T05:59:24.734Z,6.2
2019-05-05T06:00:24.496Z,6.2
2019-05-05T06:01:24.505Z,6.2
2019-05-05T06:02:24.476Z,6.2
2019-05-05T06:03:24.648Z,6.2
2019-05-05T06:04:24.513Z,6.2
2019-05-05T06:05:24.521Z,6.2
2019-05-05T06:06:24.549Z,6.2
2019-05-05T06:07:24.613Z,6.2
2019-05-05T06:08:24.549Z,6.2
2019-05-05T06:09:24.540Z,6.2
2019-05-05T06:10:27.281Z,6.2
2019-05-05T06:11:24.574Z,6.2
2019-05-05T06:12:24.686Z,6.3
2019-05-05T06:13:24.568Z,6.3
2019-05-05T06:14:25.587Z,6.3
2019-05-05T06:15:24.624Z,6.3
2019-05-05T06:16:24.601Z,6.4
2019-05-05T06:17:24.659Z,6.4
2019-05-05T06:18:24.745Z,6.5
2019-05-05T06:19:24.750Z,6.5
2019-05-05T06:20:24.753Z,6.6
2019-05-05T06:21:24.776Z,6.6
2019-05-05T06:22:29.093Z,6.7
2019-05-05T06:23:24.805Z,6.7
2019-05-05T06:24:24.879Z,6.8
2019-05-05T06:25:26.517Z,6.8
2019-05-05T06:26:24.996Z,6.9
2019-05-05T06:27:25.038Z,6.9
2019-05-05T06:28:25.152Z,7
2019-05-05T06:29:25.102Z,7
2019-05-05T06:30:25.153Z,7.1
2019-05-05T06:31:25.230Z,7.1
2019-05-05T06:32:25.285Z,7.2
2019-05-05T06:33:25.298Z,7.2
2019-05-05T06:34:25.357Z,7.2
2019-05-05T06:35:25.426Z,7.2
2019-05-05T06:36:25.483Z,7.3
2019-05-05T06:37:25.524Z,7.3
2019-05-05T06:38:25.625Z,7.3
2019-05-05T06:39:25.596Z,7.3
2019-05-05T06:40:25.652Z,7.4
2019-05-05T06:41:25.698Z,7.5
2019-05-05T06:42:25.722Z,7.6
2019-05-05T06:43:25.790Z,7.7
2019-05-05T06:44:25.782Z,7.8
2019-05-05T06:45:25.854Z,7.9
2019-05-05T06:46:25.896Z,8
2019-05-05T06:47:25.943Z,8.1
2019-05-05T06:48:26.032Z,8.1
2019-05-05T06:49:26.051Z,8.1
2019-05-05T06:50:26.094Z,8.2
2019-05-05T06:51:26.154Z,8.3
2019-05-05T06:52:26.197Z,8.3
2019-05-05T06:53:26.248Z,8.3
2019-05-05T06:54:26.326Z,8.4
2019-05-05T06:55:26.346Z,8.4
2019-05-05T06:56:26.425Z,8.4
2019-05-05T06:57:26.458Z,8.4
2019-05-05T06:58:26.492Z,8.3
2019-05-05T06:59:26.541Z,8.4
2019-05-05T07:00:26.603Z,8.4
2019-05-05T07:01:26.635Z,8.4
2019-05-05T07:02:26.655Z,8.4
2019-05-05T07:03:26.696Z,8.4
2019-05-05T07:04:26.730Z,8.3
2019-05-05T07:05:26.785Z,8.3
2019-05-05T07:06:26.830Z,8.3
2019-05-05T07:07:26.865Z,8.3
2019-05-05T07:08:26.900Z,8.4
2019-05-05T07:09:26.947Z,8.4
2019-05-05T07:10:26.985Z,8.4
2019-05-05T07:11:27.061Z,8.4
2019-05-05T07:12:27.092Z,8.4
2019-05-05T07:13:27.093Z,8.3
2019-05-05T07:14:27.113Z,8.3
2019-05-05T07:15:27.119Z,8.3
2019-05-05T07:16:27.181Z,8.3
2019-05-05T07:17:27.246Z,8.3
2019-05-05T07:18:27.271Z,8.3
2019-05-05T07:19:27.293Z,8.5
2019-05-05T07:20:27.339Z,8.6
2019-05-05T07:21:27.330Z,8.8
2019-05-05T07:22:27.382Z,8.8
2019-05-05T07:23:27.389Z,8.9
2019-05-05T07:24:27.419Z,8.9
2019-05-05T07:25:39.791Z,9
2019-05-05T07:26:27.456Z,9
2019-05-05T07:27:27.491Z,9
2019-05-05T07:28:27.517Z,9
2019-05-05T07:29:27.537Z,9
2019-05-05T07:30:27.564Z,8.9
2019-05-05T07:31:27.573Z,8.9
2019-05-05T07:32:27.598Z,8.8
2019-05-05T07:33:27.614Z,8.8
2019-05-05T07:34:27.652Z,8.7
2019-05-05T07:35:27.639Z,8.7
2019-05-05T07:36:27.674Z,8.7
2019-05-05T07:37:27.680Z,8.6
2019-05-05T07:38:27.696Z,8.6
2019-05-05T07:39:27.719Z,8.6
2019-05-05T07:40:27.733Z,8.6
2019-05-05T07:41:27.748Z,8.6
2019-05-05T07:42:27.754Z,8.6
2019-05-05T07:43:27.811Z,8.6
2019-05-05T07:44:29.635Z,8.7
2019-05-05T07:45:27.795Z,8.7
2019-05-05T07:46:27.875Z,8.7
2019-05-05T07:47:27.818Z,8.7
2019-05-05T07:48:27.830Z,8.7
2019-05-05T07:49:27.850Z,8.7
2019-05-05T07:50:32.111Z,8.7
2019-05-05T07:51:27.881Z,8.8
2019-05-05T07:52:27.876Z,8.8
2019-05-05T07:53:27.876Z,8.8
2019-05-05T07:54:27.912Z,8.8
2019-05-05T07:55:27.902Z,8.9
2019-05-05T07:56:27.923Z,8.9
2019-05-05T07:57:27.914Z,8.9
2019-05-05T07:58:27.922Z,9
2019-05-05T07:59:27.911Z,9
2019-05-05T08:00:27.938Z,9
2019-05-05T08:01:27.962Z,9.1
2019-05-05T08:02:28.016Z,9.1
2019-05-05T08:03:27.931Z,9.2
2019-05-05T08:04:28.015Z,9.2
2019-05-05T08:05:28.094Z,9.2
2019-05-05T08:06:28.124Z,9.2
2019-05-05T08:07:28.200Z,9.2
2019-05-05T08:08:28.262Z,9.2
2019-05-05T08:09:28.295Z,9.2
2019-05-05T08:10:28.358Z,9.2
2019-05-05T08:11:28.423Z,9.2
2019-05-05T08:12:28.441Z,9.2
2019-05-05T08:13:28.468Z,9.1
2019-05-05T08:14:28.549Z,9.1
2019-05-05T08:15:28.607Z,9.2
2019-05-05T08:16:28.631Z,9.3
2019-05-05T08:17:28.936Z,9.4
2019-05-05T08:18:28.904Z,9.5
2019-05-05T08:19:28.932Z,9.7
2019-05-05T08:20:28.857Z,9.8
2019-05-05T08:21:29.174Z,9.9
2019-05-05T08:22:28.915Z,10
2019-05-05T08:23:32.412Z,10.1
2019-05-05T08:24:29.014Z,10.3
2019-05-05T08:25:37.319Z,10.5
2019-05-05T08:26:29.059Z,10.7
2019-05-05T08:27:29.138Z,10.9
2019-05-05T08:28:29.156Z,11
2019-05-05T08:29:29.175Z,11.2
2019-05-05T08:30:29.244Z,11.3
2019-05-05T08:31:29.243Z,11.3
2019-05-05T08:32:32.328Z,11.4
2019-05-05T08:33:29.301Z,11.5
2019-05-05T08:34:29.345Z,11.5
2019-05-05T08:35:29.400Z,11.6
2019-05-05T08:36:29.401Z,11.7
2019-05-05T08:37:29.463Z,11.8
2019-05-05T08:38:29.493Z,11.9
2019-05-05T08:39:29.541Z,12
2019-05-05T08:40:29.578Z,12.1
2019-05-05T08:41:29.635Z,12.3
2019-05-05T08:42:29.646Z,12.4
2019-05-05T08:43:29.695Z,12.5
2019-05-05T08:44:29.723Z,12.6
2019-05-05T08:45:29.742Z,12.7
2019-05-05T08:46:29.788Z,12.7
2019-05-05T08:47:29.835Z,12.7
2019-05-05T08:48:29.862Z,12.8
2019-05-05T08:49:29.919Z,12.9
2019-05-05T08:50:29.937Z,12.9
2019-05-05T08:51:30.068Z,12.9
2019-05-05T08:52:30.025Z,12.9
2019-05-05T08:53:41.450Z,12.9
2019-05-05T08:54:30.092Z,12.9
2019-05-05T08:55:30.123Z,12.9
2019-05-05T08:56:30.183Z,13
2019-05-05T08:57:30.226Z,13
2019-05-05T08:58:30.283Z,13.1
2019-05-05T08:59:30.304Z,13
2019-05-05T09:00:30.338Z,12.9
2019-05-05T09:01:30.395Z,12.8
2019-05-05T09:02:33.072Z,12.8
2019-05-05T09:03:30.439Z,12.8
2019-05-05T09:04:30.480Z,12.9
2019-05-05T09:05:30.514Z,12.9
2019-05-05T09:06:30.560Z,13
2019-05-05T09:07:30.560Z,13
2019-05-05T09:08:30.648Z,13.1
2019-05-05T09:09:30.613Z,13.2
2019-05-05T09:10:30.648Z,13.2
2019-05-05T09:11:30.688Z,13.3
2019-05-05T09:12:30.807Z,13.4
2019-05-05T09:13:30.747Z,13.5
2019-05-05T09:14:30.749Z,13.6
2019-05-05T09:15:30.788Z,13.7
2019-05-05T09:16:30.818Z,13.8
2019-05-05T09:17:30.824Z,13.9
2019-05-05T09:18:30.859Z,14
2019-05-05T09:19:30.847Z,14.1
2019-05-05T09:20:30.869Z,14.2
2019-05-05T09:21:38.239Z,14.1
2019-05-05T09:22:30.892Z,14
2019-05-05T09:23:30.912Z,13.9
2019-05-05T09:24:30.911Z,13.7
2019-05-05T09:25:30.920Z,13.6
2019-05-05T09:26:30.939Z,13.5
2019-05-05T09:27:30.960Z,13.5
2019-05-05T09:28:30.973Z,13.4
2019-05-05T09:29:31.008Z,13.4
2019-05-05T09:30:31.011Z,13.4
2019-05-05T09:31:31.023Z,13.4
2019-05-05T09:32:31.042Z,13.3
2019-05-05T09:33:31.084Z,13.3
2019-05-05T09:34:31.069Z,13.2
2019-05-05T09:35:31.131Z,13.1
2019-05-05T09:36:31.128Z,13
2019-05-05T09:37:31.123Z,12.8
2019-05-05T09:38:31.230Z,12.7
2019-05-05T09:39:31.136Z,12.7
2019-05-05T09:40:31.149Z,12.8
2019-05-05T09:41:31.140Z,12.9
2019-05-05T09:42:31.175Z,13.1
2019-05-05T09:43:31.159Z,13.3
2019-05-05T09:44:31.179Z,13.3
2019-05-05T09:45:31.173Z,13.4
2019-05-05T09:46:31.174Z,13.3
2019-05-05T09:47:31.202Z,13.3
2019-05-05T09:48:33.344Z,13.2
2019-05-05T09:49:31.194Z,13.1
2019-05-05T09:50:31.230Z,13
2019-05-05T09:51:31.398Z,12.9
2019-05-05T09:52:31.313Z,12.8
2019-05-05T09:53:31.370Z,12.7
2019-05-05T09:54:31.440Z,12.6
2019-05-05T09:55:33.363Z,12.5
2019-05-05T09:56:31.518Z,12.4
2019-05-05T09:57:31.566Z,12.4
2019-05-05T09:58:31.643Z,12.4
2019-05-05T09:59:31.703Z,12.4
2019-05-05T10:00:33.613Z,12.4
2019-05-05T10:01:33.692Z,12.4
2019-05-05T10:02:31.886Z,12.3
2019-05-05T10:03:33.942Z,12.3
2019-05-05T10:04:32.006Z,12.2
2019-05-05T10:05:34.021Z,12.2
2019-05-05T10:06:33.676Z,12.1
2019-05-05T10:07:32.183Z,12.1
2019-05-05T10:08:34.047Z,12
2019-05-05T10:09:34.229Z,12
2019-05-05T10:10:33.683Z,12
2019-05-05T10:11:32.396Z,12.1
2019-05-05T10:12:33.769Z,12.2
2019-05-05T10:13:33.584Z,12.3
2019-05-05T10:14:34.105Z,12.5
2019-05-05T10:15:32.513Z,12.6
2019-05-05T10:16:32.574Z,12.8
2019-05-05T10:17:33.603Z,13.1
2019-05-05T10:18:34.724Z,13.3
2019-05-05T10:19:32.685Z,13.4
2019-05-05T10:20:34.332Z,13.5
2019-05-05T10:21:33.877Z,13.5
2019-05-05T10:22:34.288Z,13.4
2019-05-05T10:23:34.148Z,13.3
2019-05-05T10:24:33.823Z,13.2
2019-05-05T10:25:34.293Z,13.1
2019-05-05T10:26:34.418Z,13
2019-05-05T10:27:44.164Z,12.8
2019-05-05T10:28:34.036Z,12.7
2019-05-05T10:29:33.101Z,12.6
2019-05-05T10:30:33.116Z,12.5
2019-05-05T10:31:34.576Z,12.5
2019-05-05T10:32:33.239Z,12.5
2019-05-05T10:33:36.233Z,12.6
2019-05-05T10:34:33.532Z,12.7
2019-05-05T10:35:34.400Z,12.8
2019-05-05T10:36:33.734Z,13
2019-05-05T10:37:34.616Z,13.2
2019-05-05T10:38:34.080Z,13.4
2019-05-05T10:39:33.583Z,13.5
2019-05-05T10:40:33.911Z,13.7
2019-05-05T10:41:33.836Z,13.9
2019-05-05T10:42:33.688Z,14
2019-05-05T10:43:34.306Z,14.2
2019-05-05T10:44:34.117Z,14.3
2019-05-05T10:45:33.742Z,14.4
2019-05-05T10:46:34.146Z,14.5
2019-05-05T10:47:33.813Z,14.5
2019-05-05T10:48:34.073Z,14.4
2019-05-05T10:49:33.914Z,14.3
2019-05-05T10:50:34.282Z,14.1
2019-05-05T10:51:34.555Z,14
2019-05-05T10:52:33.987Z,14
2019-05-05T10:53:34.015Z,13.9
2019-05-05T10:54:41.455Z,13.8
2019-05-05T10:55:34.742Z,13.6
2019-05-05T10:56:34.570Z,13.5
2019-05-05T10:57:34.168Z,13.5
2019-05-05T10:58:34.093Z,13.4
2019-05-05T10:59:34.556Z,13.4
2019-05-05T11:00:34.142Z,13.4
2019-05-05T11:01:34.176Z,13.3
2019-05-05T11:02:34.690Z,13.4
2019-05-05T11:03:34.470Z,13.4
2019-05-05T11:04:34.255Z,13.4
2019-05-05T11:05:34.260Z,13.4
2019-05-05T11:06:34.332Z,13.5
2019-05-05T11:07:35.351Z,13.6
2019-05-05T11:08:34.947Z,13.7
2019-05-05T11:09:34.376Z,13.8
2019-05-05T11:10:34.394Z,13.9
2019-05-05T11:11:34.463Z,14
2019-05-05T11:12:34.442Z,14.1
2019-05-05T11:13:34.588Z,14.2
2019-05-05T11:14:34.476Z,14.3
2019-05-05T11:15:35.491Z,14.3
2019-05-05T11:16:34.490Z,14.4
2019-05-05T11:17:34.498Z,14.4
2019-05-05T11:18:34.725Z,14.5
2019-05-05T11:19:34.558Z,14.5
2019-05-05T11:20:34.545Z,14.5
2019-05-05T11:21:34.547Z,14.5
2019-05-05T11:22:34.727Z,14.5
2019-05-05T11:23:34.782Z,14.6
2019-05-05T11:24:34.715Z,14.6
2019-05-05T11:25:34.589Z,14.6
2019-05-05T11:26:34.585Z,14.7
2019-05-05T11:27:34.624Z,14.7
2019-05-05T11:28:34.624Z,14.7
2019-05-05T11:29:34.616Z,14.7
2019-05-05T11:30:34.657Z,14.7
2019-05-05T11:31:34.658Z,14.8
2019-05-05T11:32:34.627Z,14.9
2019-05-05T11:33:34.738Z,14.9
2019-05-05T11:34:34.737Z,15
2019-05-05T11:35:34.759Z,15
2019-05-05T11:36:34.794Z,15.1
2019-05-05T11:37:34.900Z,15.1
2019-05-05T11:38:34.861Z,15.2
2019-05-05T11:39:35.038Z,15.3
2019-05-05T11:40:34.951Z,15.4
2019-05-05T11:41:35.020Z,15.3
2019-05-05T11:42:35.191Z,15.3
2019-05-05T11:43:35.143Z,15.2
2019-05-05T11:44:35.196Z,15.2
2019-05-05T11:45:35.221Z,15.1
2019-05-05T11:46:35.232Z,15.1
2019-05-05T11:47:35.322Z,15.1
2019-05-05T11:48:35.328Z,15.1
2019-05-05T11:49:35.363Z,15.1
2019-05-05T11:50:35.408Z,15.2
2019-05-05T11:51:35.408Z,15.3
2019-05-05T11:52:37.710Z,15.3
2019-05-05T11:53:35.507Z,15.4
2019-05-05T11:54:35.515Z,15.5
2019-05-05T11:55:35.648Z,15.5
2019-05-05T11:56:35.630Z,15.5
2019-05-05T11:57:35.594Z,15.5
2019-05-05T11:58:35.730Z,15.4
2019-05-05T11:59:35.879Z,15.4
2019-05-05T12:00:35.742Z,15.4
2019-05-05T12:01:35.729Z,15.4
2019-05-05T12:02:36.785Z,15.4
2019-05-05T12:03:37.750Z,15.4
2019-05-05T12:04:35.883Z,15.4
2019-05-05T12:05:35.927Z,15.3
2019-05-05T12:06:35.927Z,15.3
2019-05-05T12:07:36.000Z,15.3
2019-05-05T12:08:36.055Z,15.3
2019-05-05T12:09:36.101Z,15.3
2019-05-05T12:10:36.148Z,15.3
2019-05-05T12:11:36.146Z,15.3
2019-05-05T12:12:36.195Z,15.3
2019-05-05T12:13:36.190Z,15.3
2019-05-05T12:14:36.228Z,15.4
2019-05-05T12:15:36.261Z,15.4
2019-05-05T12:16:36.316Z,15.5
2019-05-05T12:17:36.628Z,15.5
2019-05-05T12:18:36.380Z,15.6
2019-05-05T12:19:36.436Z,15.6
2019-05-05T12:20:36.446Z,15.6
2019-05-05T12:21:36.507Z,15.6
2019-05-05T12:22:36.546Z,15.5
2019-05-05T12:23:36.557Z,15.4
2019-05-05T12:24:36.581Z,15.3
2019-05-05T12:25:36.619Z,15.3
2019-05-05T12:26:36.664Z,15.3
2019-05-05T12:27:36.676Z,15.3
2019-05-05T12:28:36.752Z,15.3
2019-05-05T12:29:37.833Z,15.3
2019-05-05T12:30:39.276Z,15.3
2019-05-05T12:31:36.797Z,15.4
2019-05-05T12:32:36.826Z,15.4
2019-05-05T12:33:36.835Z,15.5
2019-05-05T12:34:36.899Z,15.6
2019-05-05T12:35:36.952Z,15.7
2019-05-05T12:36:36.907Z,15.7
2019-05-05T12:37:36.942Z,15.6
2019-05-05T12:38:36.963Z,15.5
2019-05-05T12:39:36.971Z,15.4
2019-05-05T12:40:39.479Z,15.4
2019-05-05T12:41:37.037Z,15.5
2019-05-05T12:42:37.080Z,15.4
2019-05-05T12:43:37.087Z,15.4
2019-05-05T12:44:37.098Z,15.4
2019-05-05T12:45:37.127Z,15.5
2019-05-05T12:46:37.094Z,15.6
2019-05-05T12:47:37.177Z,15.7
2019-05-05T12:48:37.417Z,15.8
2019-05-05T12:49:37.135Z,15.9
2019-05-05T12:50:37.174Z,15.9
2019-05-05T12:51:37.169Z,15.9
2019-05-05T12:52:37.249Z,15.9
2019-05-05T12:53:37.207Z,15.9
2019-05-05T12:54:37.237Z,16
2019-05-05T12:55:41.303Z,16
2019-05-05T12:56:37.272Z,16
2019-05-05T12:57:37.258Z,16.1
2019-05-05T12:58:37.271Z,16.1
2019-05-05T12:59:37.306Z,16.1
2019-05-05T13:00:37.304Z,16.1
2019-05-05T13:01:37.303Z,16.2
2019-05-05T13:02:37.318Z,16.2
2019-05-05T13:03:37.314Z,16.2
2019-05-05T13:04:37.413Z,16.3
2019-05-05T13:05:37.321Z,16.2
2019-05-05T13:06:37.343Z,16.1
2019-05-05T13:07:37.341Z,16
2019-05-05T13:08:37.333Z,15.9
2019-05-05T13:09:37.399Z,15.7
2019-05-05T13:10:37.356Z,15.7
2019-05-05T13:11:37.376Z,15.6
2019-05-05T13:12:37.420Z,15.5
2019-05-05T13:13:37.521Z,15.4
2019-05-05T13:14:37.615Z,15.3
2019-05-05T13:15:37.619Z,15.2
2019-05-05T13:16:37.676Z,15
2019-05-05T13:17:37.727Z,14.9
2019-05-05T13:18:37.822Z,14.8
2019-05-05T13:19:37.833Z,14.7
2019-05-05T13:20:37.850Z,14.6
2019-05-05T13:21:37.892Z,14.5
2019-05-05T13:22:37.964Z,14.4
2019-05-05T13:23:37.972Z,14.3
2019-05-05T13:24:37.990Z,14.3
2019-05-05T13:25:38.065Z,14.1
2019-05-05T13:26:38.109Z,14
2019-05-05T13:27:38.158Z,13.9
2019-05-05T13:28:38.198Z,13.8
2019-05-05T13:29:38.232Z,13.7
2019-05-05T13:30:38.303Z,13.7
2019-05-05T13:31:38.361Z,13.7
2019-05-05T13:32:38.485Z,13.8
2019-05-05T13:33:38.389Z,13.9
2019-05-05T13:34:38.457Z,13.9
2019-05-05T13:35:38.511Z,14
2019-05-05T13:36:38.561Z,14.1
2019-05-05T13:37:38.614Z,14.2
2019-05-05T13:38:38.663Z,14.3
2019-05-05T13:39:38.726Z,14.3
2019-05-05T13:40:38.732Z,14.3